Smederevo, Serbia
Current Conditions -  °F | °C
As of 8:30 AM on Sunday 21 Dec 2014 (Local Time) from LYBE Reporting Station
Clear Clear  
Wind Chill: 33°   Ceiling: Unl
Heat Index: 39°   Visibility: 6mi
Dew Point: 36°   Wind: 9mph
Humidity: 87%   Direction: 230°SW
Pressure: 30.27"   Gusts: NA
Location:  44.67°N, 20.93°E
Report Text: LYBE 210630Z 23008KT CAVOK 04/02 Q1025 NOSIG
Loading
Personal Weather Stations






























Interactive Weather Map New forecast layout! Learn more

10-Day Weather Forecast

Advertisements
Track Severe Weather on mobile